sensor_id;sensor_type;location;lat;lon;timestamp;pressure;altitude;pressure_sealevel;temperature;humidity
15193;BME280;7697;51.630;7.484;2024-02-23T00:03:46;-17345.88;;;8.10;98.81
15193;BME280;7697;51.630;7.484;2024-02-23T00:08:47;-17340.84;;;7.95;100.00
15193;BME280;7697;51.630;7.484;2024-02-23T00:13:50;-17336.84;;;7.83;100.00
15193;BME280;7697;51.630;7.484;2024-02-23T00:18:52;-17334.50;;;7.76;100.00
15193;BME280;7697;51.630;7.484;2024-02-23T00:23:54;-17331.81;;;7.68;100.00
15193;BME280;7697;51.630;7.484;2024-02-23T00:28:57;-17328.44;;;7.58;100.00
15193;BME280;7697;51.630;7.484;2024-02-23T00:33:59;-17326.78;;;7.52;100.00
15193;BME280;7697;51.630;7.484;2024-02-23T00:39:01;-17325.09;;;7.47;100.00
15193;BME280;7697;51.630;7.484;2024-02-23T00:44:04;-17320.91;;;7.35;100.00
15193;BME280;7697;51.630;7.484;2024-02-23T00:49:06;-17315.38;;;7.18;100.00
15193;BME280;7697;51.630;7.484;2024-02-23T00:54:08;-17311.69;;;7.07;100.00
15193;BME280;7697;51.630;7.484;2024-02-23T00:59:11;-17312.00;;;7.08;100.00
15193;BME280;7697;51.630;7.484;2024-02-23T01:04:13;-17310.84;;;7.04;100.00
15193;BME280;7697;51.630;7.484;2024-02-23T01:09:15;-17309.16;;;6.99;100.00
15193;BME280;7697;51.630;7.484;2024-02-23T01:14:22;-17311.34;;;7.06;100.00
15193;BME280;7697;51.630;7.484;2024-02-23T01:19:23;-17311.00;;;7.05;100.00
15193;BME280;7697;51.630;7.484;2024-02-23T01:24:25;-17309.00;;;6.99;100.00
15193;BME280;7697;51.630;7.484;2024-02-23T01:29:29;-17310.00;;;7.02;100.00
15193;BME280;7697;51.630;7.484;2024-02-23T01:34:31;-17310.16;;;7.02;99.40
15193;BME280;7697;51.630;7.484;2024-02-23T01:39:34;-17309.31;;;7.00;99.09
15193;BME280;7697;51.630;7.484;2024-02-23T01:44:37;-17308.81;;;6.98;98.42
15193;BME280;7697;51.630;7.484;2024-02-23T01:49:38;-17308.16;;;6.96;98.86
15193;BME280;7697;51.630;7.484;2024-02-23T01:54:41;-17309.00;;;6.99;98.67
15193;BME280;7697;51.630;7.484;2024-02-23T01:59:44;-17310.84;;;7.04;97.88
15193;BME280;7697;51.630;7.484;2024-02-23T02:04:46;-17309.16;;;6.99;97.92
15193;BME280;7697;51.630;7.484;2024-02-23T02:09:47;-17309.16;;;6.99;97.63
15193;BME280;7697;51.630;7.484;2024-02-23T02:14:50;-17309.50;;;7.00;98.06
15193;BME280;7697;51.630;7.484;2024-02-23T02:19:52;-17310.69;;;7.04;98.15
15193;BME280;7697;51.630;7.484;2024-02-23T02:24:54;-17311.69;;;7.07;96.92
15193;BME280;7697;51.630;7.484;2024-02-23T02:29:58;-17311.69;;;7.07;97.09
15193;BME280;7697;51.630;7.484;2024-02-23T02:34:59;-17311.50;;;7.06;96.83
15193;BME280;7697;51.630;7.484;2024-02-23T02:40:01;-17312.69;;;7.10;96.40
15193;BME280;7697;51.630;7.484;2024-02-23T02:45:06;-17313.84;;;7.13;96.28
15193;BME280;7697;51.630;7.484;2024-02-23T02:50:08;-17312.50;;;7.09;96.29
15193;BME280;7697;51.630;7.484;2024-02-23T02:55:10;-17311.69;;;7.07;95.75
15193;BME280;7697;51.630;7.484;2024-02-23T03:00:14;-17311.69;;;7.07;95.83
15193;BME280;7697;51.630;7.484;2024-02-23T03:05:15;-17311.69;;;7.07;95.32
15193;BME280;7697;51.630;7.484;2024-02-23T03:10:17;-17312.69;;;7.10;94.94
15193;BME280;7697;51.630;7.484;2024-02-23T03:15:20;-17311.69;;;7.07;94.65
15193;BME280;7697;51.630;7.484;2024-02-23T03:20:22;-17312.19;;;7.08;93.70
15193;BME280;7697;51.630;7.484;2024-02-23T03:25:24;-17313.34;;;7.12;94.18
15193;BME280;7697;51.630;7.484;2024-02-23T03:30:27;-17312.69;;;7.10;94.57
15193;BME280;7697;51.630;7.484;2024-02-23T03:35:29;-17310.84;;;7.04;93.88
15193;BME280;7697;51.630;7.484;2024-02-23T03:40:31;-17308.31;;;6.97;94.60
15193;BME280;7697;51.630;7.484;2024-02-23T03:45:34;-17309.66;;;7.01;94.27
15193;BME280;7697;51.630;7.484;2024-02-23T03:50:36;-17307.81;;;6.95;94.38
15193;BME280;7697;51.630;7.484;2024-02-23T03:55:37;-17306.66;;;6.92;94.41
15193;BME280;7697;51.630;7.484;2024-02-23T04:00:40;-17304.31;;;6.85;94.71
15193;BME280;7697;51.630;7.484;2024-02-23T04:05:42;-17304.97;;;6.87;94.30
15193;BME280;7697;51.630;7.484;2024-02-23T04:10:44;-17305.31;;;6.88;94.20
15193;BME280;7697;51.630;7.484;2024-02-23T04:15:47;-17305.97;;;6.90;94.51
15193;BME280;7697;51.630;7.484;2024-02-23T04:20:48;-17306.66;;;6.92;94.50
15193;BME280;7697;51.630;7.484;2024-02-23T04:25:50;-17308.66;;;6.98;94.34
15193;BME280;7697;51.630;7.484;2024-02-23T04:30:53;-17308.66;;;6.98;93.81
15193;BME280;7697;51.630;7.484;2024-02-23T04:35:55;-17308.50;;;6.97;93.46
15193;BME280;7697;51.630;7.484;2024-02-23T04:40:58;-17309.16;;;6.99;93.71
15193;BME280;7697;51.630;7.484;2024-02-23T04:46:01;-17308.81;;;6.98;93.28
15193;BME280;7697;51.630;7.484;2024-02-23T04:51:03;-17309.66;;;7.01;93.82
15193;BME280;7697;51.630;7.484;2024-02-23T04:56:06;-17310.69;;;7.04;93.29
15193;BME280;7697;51.630;7.484;2024-02-23T05:01:10;-17311.50;;;7.06;93.21
15193;BME280;7697;51.630;7.484;2024-02-23T05:06:12;-17310.34;;;7.03;93.55
15193;BME280;7697;51.630;7.484;2024-02-23T05:11:15;-17311.84;;;7.07;92.25
15193;BME280;7697;51.630;7.484;2024-02-23T05:16:19;-17312.00;;;7.08;91.52
15193;BME280;7697;51.630;7.484;2024-02-23T05:21:21;-17312.50;;;7.09;91.53
15193;BME280;7697;51.630;7.484;2024-02-23T05:26:23;-17311.00;;;7.05;91.99
15193;BME280;7697;51.630;7.484;2024-02-23T05:31:44;-17312.50;;;7.09;91.12
15193;BME280;7697;51.630;7.484;2024-02-23T05:36:47;-17312.50;;;7.09;91.94
15193;BME280;7697;51.630;7.484;2024-02-23T05:41:50;-17311.69;;;7.07;91.77
15193;BME280;7697;51.630;7.484;2024-02-23T05:46:53;-17311.84;;;7.07;90.80
15193;BME280;7697;51.630;7.484;2024-02-23T05:51:55;-17312.00;;;7.08;90.63
15193;BME280;7697;51.630;7.484;2024-02-23T05:56:57;-17311.69;;;7.07;91.41
15193;BME280;7697;51.630;7.484;2024-02-23T06:02:00;-17311.50;;;7.06;91.14
15193;BME280;7697;51.630;7.484;2024-02-23T06:07:02;-17310.00;;;7.02;91.00
15193;BME280;7697;51.630;7.484;2024-02-23T06:12:05;-17312.69;;;7.10;90.60
15193;BME280;7697;51.630;7.484;2024-02-23T06:17:08;-17312.50;;;7.09;90.67
15193;BME280;7697;51.630;7.484;2024-02-23T06:22:10;-17310.34;;;7.03;91.19
15193;BME280;7697;51.630;7.484;2024-02-23T06:27:12;-17308.00;;;6.96;90.46
15193;BME280;7697;51.630;7.484;2024-02-23T06:32:15;-17305.66;;;6.89;90.22
15193;BME280;7697;51.630;7.484;2024-02-23T06:37:17;-17304.63;;;6.86;90.32
15193;BME280;7697;51.630;7.484;2024-02-23T06:42:19;-17301.94;;;6.77;90.65
15193;BME280;7697;51.630;7.484;2024-02-23T06:47:22;-17301.44;;;6.76;90.38
15193;BME280;7697;51.630;7.484;2024-02-23T06:52:25;-17299.94;;;6.71;91.00
15193;BME280;7697;51.630;7.484;2024-02-23T06:57:27;-17299.28;;;6.69;90.83
15193;BME280;7697;51.630;7.484;2024-02-23T07:02:30;-17300.94;;;6.74;90.62
15193;BME280;7697;51.630;7.484;2024-02-23T07:07:35;-17300.94;;;6.74;90.69
15193;BME280;7697;51.630;7.484;2024-02-23T07:12:36;-17299.94;;;6.71;90.60
15193;BME280;7697;51.630;7.484;2024-02-23T07:17:39;-17301.63;;;6.76;90.99
15193;BME280;7697;51.630;7.484;2024-02-23T07:22:43;-17304.63;;;6.86;90.11
15193;BME280;7697;51.630;7.484;2024-02-23T07:27:46;-17309.16;;;6.99;89.40
15193;BME280;7697;51.630;7.484;2024-02-23T07:32:50;-17311.50;;;7.06;89.29
15193;BME280;7697;51.630;7.484;2024-02-23T07:37:52;-17313.53;;;7.12;88.56
15193;BME280;7697;51.630;7.484;2024-02-23T07:42:54;-17316.38;;;7.21;89.13
15193;BME280;7697;51.630;7.484;2024-02-23T07:47:57;-17318.22;;;7.27;88.82
15193;BME280;7697;51.630;7.484;2024-02-23T07:52:59;-17321.56;;;7.37;88.76
15193;BME280;7697;51.630;7.484;2024-02-23T07:58:01;-17325.94;;;7.50;88.34
15193;BME280;7697;51.630;7.484;2024-02-23T08:03:04;-17327.28;;;7.54;88.29
15193;BME280;7697;51.630;7.484;2024-02-23T08:08:07;-17334.16;;;7.75;88.33
15193;BME280;7697;51.630;7.484;2024-02-23T08:13:08;-17341.53;;;7.97;87.43
15193;BME280;7697;51.630;7.484;2024-02-23T08:18:12;-17337.50;;;7.85;86.79
15193;BME280;7697;51.630;7.484;2024-02-23T08:23:14;-17335.50;;;7.79;87.06
15193;BME280;7697;51.630;7.484;2024-02-23T08:28:16;-17335.81;;;7.80;87.73
15193;BME280;7697;51.630;7.484;2024-02-23T08:33:19;-17336.50;;;7.82;87.80
15193;BME280;7697;51.630;7.484;2024-02-23T08:38:21;-17346.56;;;8.12;87.67
15193;BME280;7697;51.630;7.484;2024-02-23T08:43:23;-17356.78;;;8.43;86.21
15193;BME280;7697;51.630;7.484;2024-02-23T08:48:26;-17357.97;;;8.47;86.88
15193;BME280;7697;51.630;7.484;2024-02-23T08:53:28;-17360.50;;;8.54;85.78
15193;BME280;7697;51.630;7.484;2024-02-23T08:58:30;-17361.31;;;8.57;85.34
15193;BME280;7697;51.630;7.484;2024-02-23T09:03:34;-17362.84;;;8.61;84.13
15193;BME280;7697;51.630;7.484;2024-02-23T09:08:35;-17364.00;;;8.65;84.54
15193;BME280;7697;51.630;7.484;2024-02-23T09:13:37;-17376.91;;;9.04;83.94
15193;BME280;7697;51.630;7.484;2024-02-23T09:18:40;-17380.44;;;9.15;82.08
15193;BME280;7697;51.630;7.484;2024-02-23T09:23:42;-17377.25;;;9.05;82.15
15193;BME280;7697;51.630;7.484;2024-02-23T09:28:44;-17376.09;;;9.01;81.70
15193;BME280;7697;51.630;7.484;2024-02-23T09:33:47;-17372.22;;;8.90;82.58
15193;BME280;7697;51.630;7.484;2024-02-23T09:38:51;-17371.56;;;8.88;83.71
15193;BME280;7697;51.630;7.484;2024-02-23T09:43:55;-17372.22;;;8.90;83.88
15193;BME280;7697;51.630;7.484;2024-02-23T09:49:02;-17368.19;;;8.78;82.67
15193;BME280;7697;51.630;7.484;2024-02-23T09:54:06;-17365.84;;;8.71;82.79
15193;BME280;7697;51.630;7.484;2024-02-23T09:59:08;-17368.03;;;8.77;83.09
15193;BME280;7697;51.630;7.484;2024-02-23T10:04:11;-17368.88;;;8.80;82.58
15193;BME280;7697;51.630;7.484;2024-02-23T10:09:13;-17369.22;;;8.81;82.83
15193;BME280;7697;51.630;7.484;2024-02-23T10:14:15;-17370.03;;;8.83;82.34
15193;BME280;7697;51.630;7.484;2024-02-23T10:19:19;-17370.72;;;8.85;82.05
15193;BME280;7697;51.630;7.484;2024-02-23T10:24:20;-17371.38;;;8.87;81.15
15193;BME280;7697;51.630;7.484;2024-02-23T10:29:23;-17370.38;;;8.84;80.98
15193;BME280;7697;51.630;7.484;2024-02-23T10:34:27;-17372.56;;;8.91;81.81
15193;BME280;7697;51.630;7.484;2024-02-23T10:39:31;-17372.91;;;8.92;81.47
15193;BME280;7697;51.630;7.484;2024-02-23T10:44:34;-17375.25;;;8.99;81.84
15193;BME280;7697;51.630;7.484;2024-02-23T10:49:39;-17377.44;;;9.06;81.72
15193;BME280;7697;51.630;7.484;2024-02-23T10:54:42;-17377.59;;;9.06;81.23
15193;BME280;7697;51.630;7.484;2024-02-23T10:59:47;-17380.09;;;9.14;81.58
15193;BME280;7697;51.630;7.484;2024-02-23T11:04:51;-17379.94;;;9.13;81.08
15193;BME280;7697;51.630;7.484;2024-02-23T11:09:58;-17378.44;;;9.09;81.19
15193;BME280;7697;51.630;7.484;2024-02-23T11:15:01;-17378.09;;;9.08;81.01
15193;BME280;7697;51.630;7.484;2024-02-23T11:20:06;-17380.63;;;9.15;80.82
15193;BME280;7697;51.630;7.484;2024-02-23T11:25:09;-17386.81;;;9.34;80.58
15193;BME280;7697;51.630;7.484;2024-02-23T11:30:12;-17392.84;;;9.52;80.40
15193;BME280;7697;51.630;7.484;2024-02-23T11:35:19;-17408.63;;;10.00;80.18
15193;BME280;7697;51.630;7.484;2024-02-23T11:40:21;-17418.53;;;10.30;78.23
15193;BME280;7697;51.630;7.484;2024-02-23T11:45:23;-17418.34;;;10.29;76.57
15193;BME280;7697;51.630;7.484;2024-02-23T11:50:27;-17416.50;;;10.24;74.69
15193;BME280;7697;51.630;7.484;2024-02-23T11:55:29;-17412.81;;;10.12;75.22
15193;BME280;7697;51.630;7.484;2024-02-23T12:00:31;-17411.97;;;10.10;74.22
15193;BME280;7697;51.630;7.484;2024-02-23T12:05:34;-17410.31;;;10.05;74.84
15193;BME280;7697;51.630;7.484;2024-02-23T12:10:37;-17408.28;;;9.99;75.92
15193;BME280;7697;51.630;7.484;2024-02-23T12:15:39;-17410.47;;;10.05;75.21
15193;BME280;7697;51.630;7.484;2024-02-23T12:20:42;-17410.63;;;10.06;74.65
15193;BME280;7697;51.630;7.484;2024-02-23T12:25:52;-17409.47;;;10.02;75.68
15193;BME280;7697;51.630;7.484;2024-02-23T12:30:59;-17408.47;;;9.99;75.96
15193;BME280;7697;51.630;7.484;2024-02-23T12:36:04;-17409.13;;;10.01;75.65
15193;BME280;7697;51.630;7.484;2024-02-23T12:41:06;-17407.44;;;9.96;76.18
15193;BME280;7697;51.630;7.484;2024-02-23T12:46:08;-17407.78;;;9.97;75.76
15193;BME280;7697;51.630;7.484;2024-02-23T12:51:13;-17407.44;;;9.96;76.26
15193;BME280;7697;51.630;7.484;2024-02-23T12:56:15;-17406.44;;;9.93;74.81
15193;BME280;7697;51.630;7.484;2024-02-23T13:01:18;-17405.09;;;9.89;75.48
15193;BME280;7697;51.630;7.484;2024-02-23T13:06:21;-17406.78;;;9.94;76.80
15193;BME280;7697;51.630;7.484;2024-02-23T13:11:23;-17408.97;;;10.01;76.11
15193;BME280;7697;51.630;7.484;2024-02-23T13:16:25;-17412.31;;;10.11;76.18
15193;BME280;7697;51.630;7.484;2024-02-23T13:21:28;-17413.66;;;10.15;76.07
15193;BME280;7697;51.630;7.484;2024-02-23T13:26:30;-17417.03;;;10.25;76.18
15193;BME280;7697;51.630;7.484;2024-02-23T13:31:31;-17418.34;;;10.29;76.79
15193;BME280;7697;51.630;7.484;2024-02-23T13:36:35;-17421.22;;;10.38;75.43
15193;BME280;7697;51.630;7.484;2024-02-23T13:41:37;-17420.03;;;10.34;75.31
15193;BME280;7697;51.630;7.484;2024-02-23T13:46:39;-17418.69;;;10.30;74.71
15193;BME280;7697;51.630;7.484;2024-02-23T13:51:42;-17416.84;;;10.25;75.59
15193;BME280;7697;51.630;7.484;2024-02-23T13:56:44;-17416.84;;;10.25;76.85
15193;BME280;7697;51.630;7.484;2024-02-23T14:01:45;-17418.19;;;10.29;76.97
15193;BME280;7697;51.630;7.484;2024-02-23T14:06:48;-17418.19;;;10.29;77.51
15193;BME280;7697;51.630;7.484;2024-02-23T14:11:50;-17416.00;;;10.22;79.76
15193;BME280;7697;51.630;7.484;2024-02-23T14:16:52;-17411.47;;;10.08;79.76
15193;BME280;7697;51.630;7.484;2024-02-23T14:21:56;-17409.63;;;10.03;79.53
15193;BME280;7697;51.630;7.484;2024-02-23T14:26:57;-17406.94;;;9.95;79.56
15193;BME280;7697;51.630;7.484;2024-02-23T14:31:59;-17408.28;;;9.99;79.10
15193;BME280;7697;51.630;7.484;2024-02-23T14:37:03;-17409.13;;;10.01;79.33
15193;BME280;7697;51.630;7.484;2024-02-23T14:42:05;-17408.97;;;10.01;79.09
15193;BME280;7697;51.630;7.484;2024-02-23T14:47:08;-17411.31;;;10.08;79.39
15193;BME280;7697;51.630;7.484;2024-02-23T14:52:12;-17410.97;;;10.07;79.36
15193;BME280;7697;51.630;7.484;2024-02-23T14:57:15;-17411.97;;;10.10;79.02
15193;BME280;7697;51.630;7.484;2024-02-23T15:02:19;-17411.97;;;10.10;80.69
15193;BME280;7697;51.630;7.484;2024-02-23T15:07:22;-17410.47;;;10.05;81.92
15193;BME280;7697;51.630;7.484;2024-02-23T15:12:24;-17410.97;;;10.07;82.27
15193;BME280;7697;51.630;7.484;2024-02-23T15:17:28;-17409.28;;;10.02;81.12
15193;BME280;7697;51.630;7.484;2024-02-23T15:22:31;-17408.13;;;9.98;81.70
15193;BME280;7697;51.630;7.484;2024-02-23T15:27:33;-17408.13;;;9.98;82.30
15193;BME280;7697;51.630;7.484;2024-02-23T15:32:36;-17406.09;;;9.92;83.73
15193;BME280;7697;51.630;7.484;2024-02-23T15:37:39;-17398.06;;;9.68;85.84
15193;BME280;7697;51.630;7.484;2024-02-23T15:42:40;-17394.88;;;9.58;86.76
15193;BME280;7697;51.630;7.484;2024-02-23T15:47:42;-17392.19;;;9.50;87.42
15193;BME280;7697;51.630;7.484;2024-02-23T15:52:45;-17391.34;;;9.48;88.66
15193;BME280;7697;51.630;7.484;2024-02-23T15:57:48;-17386.81;;;9.34;88.92
15193;BME280;7697;51.630;7.484;2024-02-23T16:02:49;-17386.81;;;9.34;89.32
15193;BME280;7697;51.630;7.484;2024-02-23T16:07:52;-17382.47;;;9.21;89.91
15193;BME280;7697;51.630;7.484;2024-02-23T16:12:54;-17380.63;;;9.15;90.74
15193;BME280;7697;51.630;7.484;2024-02-23T16:17:59;-17379.94;;;9.13;90.19
15193;BME280;7697;51.630;7.484;2024-02-23T16:23:02;-17379.78;;;9.13;90.34
15193;BME280;7697;51.630;7.484;2024-02-23T16:28:04;-17378.94;;;9.10;91.24
15193;BME280;7697;51.630;7.484;2024-02-23T16:33:06;-17377.09;;;9.04;90.77
15193;BME280;7697;51.630;7.484;2024-02-23T16:38:09;-17371.38;;;8.87;91.21
15193;BME280;7697;51.630;7.484;2024-02-23T16:43:11;-17371.06;;;8.86;91.35
15193;BME280;7697;51.630;7.484;2024-02-23T16:48:13;-17370.03;;;8.83;91.78
15193;BME280;7697;51.630;7.484;2024-02-23T16:53:17;-17370.03;;;8.83;91.80
15193;BME280;7697;51.630;7.484;2024-02-23T16:58:19;-17372.06;;;8.89;91.60
15193;BME280;7697;51.630;7.484;2024-02-23T17:03:22;-17372.06;;;8.89;91.76
15193;BME280;7697;51.630;7.484;2024-02-23T17:08:25;-17369.38;;;8.81;91.88
15193;BME280;7697;51.630;7.484;2024-02-23T17:13:27;-17369.88;;;8.83;91.45
15193;BME280;7697;51.630;7.484;2024-02-23T17:18:29;-17368.38;;;8.78;91.44
15193;BME280;7697;51.630;7.484;2024-02-23T17:23:32;-17368.38;;;8.78;91.86
15193;BME280;7697;51.630;7.484;2024-02-23T17:28:34;-17367.53;;;8.76;91.75
15193;BME280;7697;51.630;7.484;2024-02-23T17:33:38;-17364.34;;;8.66;91.65
15193;BME280;7697;51.630;7.484;2024-02-23T17:38:41;-17364.50;;;8.67;91.49
15193;BME280;7697;51.630;7.484;2024-02-23T17:43:43;-17365.69;;;8.70;91.05
15193;BME280;7697;51.630;7.484;2024-02-23T17:48:44;-17366.84;;;8.74;91.35
15193;BME280;7697;51.630;7.484;2024-02-23T17:53:47;-17367.03;;;8.74;91.05
15193;BME280;7697;51.630;7.484;2024-02-23T17:58:49;-17366.34;;;8.72;90.70
15193;BME280;7697;51.630;7.484;2024-02-23T18:03:51;-17368.03;;;8.77;90.92
15193;BME280;7697;51.630;7.484;2024-02-23T18:08:54;-17366.69;;;8.73;90.53
15193;BME280;7697;51.630;7.484;2024-02-23T18:13:56;-17365.84;;;8.71;91.18
15193;BME280;7697;51.630;7.484;2024-02-23T18:18:57;-17363.16;;;8.62;91.00
15193;BME280;7697;51.630;7.484;2024-02-23T18:24:05;-17359.97;;;8.53;92.02
15193;BME280;7697;51.630;7.484;2024-02-23T18:29:07;-17356.47;;;8.42;91.30
15193;BME280;7697;51.630;7.484;2024-02-23T18:34:09;-17355.28;;;8.39;92.29
15193;BME280;7697;51.630;7.484;2024-02-23T18:39:12;-17354.44;;;8.36;91.90
15193;BME280;7697;51.630;7.484;2024-02-23T18:44:14;-17354.94;;;8.38;92.04
15193;BME280;7697;51.630;7.484;2024-02-23T18:49:17;-17353.94;;;8.35;91.98
15193;BME280;7697;51.630;7.484;2024-02-23T18:54:20;-17355.47;;;8.39;92.65
15193;BME280;7697;51.630;7.484;2024-02-23T18:59:22;-17352.78;;;8.31;92.43
15193;BME280;7697;51.630;7.484;2024-02-23T19:04:24;-17353.59;;;8.34;92.24
15193;BME280;7697;51.630;7.484;2024-02-23T19:09:27;-17350.25;;;8.23;92.82
15193;BME280;7697;51.630;7.484;2024-02-23T19:14:29;-17346.22;;;8.11;91.92
15193;BME280;7697;51.630;7.484;2024-02-23T19:19:30;-17345.06;;;8.08;92.30
15193;BME280;7697;51.630;7.484;2024-02-23T19:24:34;-17343.72;;;8.04;91.81
15193;BME280;7697;51.630;7.484;2024-02-23T19:29:35;-17345.88;;;8.10;91.75
15193;BME280;7697;51.630;7.484;2024-02-23T19:34:37;-17346.22;;;8.11;90.47
15193;BME280;7697;51.630;7.484;2024-02-23T19:39:40;-17347.91;;;8.16;91.23
15193;BME280;7697;51.630;7.484;2024-02-23T19:44:42;-17347.22;;;8.14;90.69
15193;BME280;7697;51.630;7.484;2024-02-23T19:49:43;-17346.91;;;8.13;90.73
15193;BME280;7697;51.630;7.484;2024-02-23T19:54:47;-17344.72;;;8.07;90.78
15193;BME280;7697;51.630;7.484;2024-02-23T19:59:48;-17344.53;;;8.06;90.32
15193;BME280;7697;51.630;7.484;2024-02-23T20:04:50;-17342.38;;;8.00;90.60
15193;BME280;7697;51.630;7.484;2024-02-23T20:09:54;-17340.34;;;7.94;90.39
15193;BME280;7697;51.630;7.484;2024-02-23T20:14:55;-17338.69;;;7.88;90.36
15193;BME280;7697;51.630;7.484;2024-02-23T20:19:58;-17338.34;;;7.87;90.68
15193;BME280;7697;51.630;7.484;2024-02-23T20:25:01;-17336.50;;;7.82;91.03
15193;BME280;7697;51.630;7.484;2024-02-23T20:30:04;-17336.16;;;7.81;90.32
15193;BME280;7697;51.630;7.484;2024-02-23T20:35:06;-17334.81;;;7.77;90.45
15193;BME280;7697;51.630;7.484;2024-02-23T20:40:11;-17333.66;;;7.73;90.20
15193;BME280;7697;51.630;7.484;2024-02-23T20:45:12;-17332.13;;;7.69;91.41
15193;BME280;7697;51.630;7.484;2024-02-23T20:50:14;-17332.13;;;7.69;90.86
15193;BME280;7697;51.630;7.484;2024-02-23T20:55:17;-17332.13;;;7.69;90.88
15193;BME280;7697;51.630;7.484;2024-02-23T21:00:19;-17329.78;;;7.62;91.59
15193;BME280;7697;51.630;7.484;2024-02-23T21:05:21;-17329.97;;;7.62;91.72
15193;BME280;7697;51.630;7.484;2024-02-23T21:10:24;-17329.63;;;7.61;91.35
15193;BME280;7697;51.630;7.484;2024-02-23T21:15:26;-17328.78;;;7.59;91.32
15193;BME280;7697;51.630;7.484;2024-02-23T21:20:27;-17326.78;;;7.52;91.82
15193;BME280;7697;51.630;7.484;2024-02-23T21:25:30;-17325.44;;;7.48;92.19
15193;BME280;7697;51.630;7.484;2024-02-23T21:30:32;-17323.91;;;7.44;92.04
15193;BME280;7697;51.630;7.484;2024-02-23T21:35:34;-17322.25;;;7.39;92.54
15193;BME280;7697;51.630;7.484;2024-02-23T21:40:38;-17320.22;;;7.33;92.79
15193;BME280;7697;51.630;7.484;2024-02-23T21:45:39;-17319.06;;;7.29;92.90
15193;BME280;7697;51.630;7.484;2024-02-23T21:50:42;-17316.72;;;7.22;93.15
15193;BME280;7697;51.630;7.484;2024-02-23T21:55:45;-17317.22;;;7.24;93.27
15193;BME280;7697;51.630;7.484;2024-02-23T22:00:47;-17317.03;;;7.23;93.64
15193;BME280;7697;51.630;7.484;2024-02-23T22:05:49;-17314.88;;;7.16;93.67
15193;BME280;7697;51.630;7.484;2024-02-23T22:10:52;-17313.69;;;7.13;93.73
15193;BME280;7697;51.630;7.484;2024-02-23T22:15:58;-17312.00;;;7.08;94.12
15193;BME280;7697;51.630;7.484;2024-02-23T22:20:59;-17311.84;;;7.07;94.70
15193;BME280;7697;51.630;7.484;2024-02-23T22:26:03;-17311.50;;;7.06;94.17
15193;BME280;7697;51.630;7.484;2024-02-23T22:31:06;-17311.00;;;7.05;95.08
15193;BME280;7697;51.630;7.484;2024-02-23T22:36:08;-17309.00;;;6.99;95.14
15193;BME280;7697;51.630;7.484;2024-02-23T22:41:11;-17308.81;;;6.98;95.19
15193;BME280;7697;51.630;7.484;2024-02-23T22:46:13;-17308.66;;;6.98;94.70
15193;BME280;7697;51.630;7.484;2024-02-23T22:51:15;-17307.16;;;6.93;95.45
15193;BME280;7697;51.630;7.484;2024-02-23T22:56:19;-17306.31;;;6.91;94.54
15193;BME280;7697;51.630;7.484;2024-02-23T23:01:20;-17305.66;;;6.89;95.86
15193;BME280;7697;51.630;7.484;2024-02-23T23:06:22;-17303.97;;;6.84;95.35
15193;BME280;7697;51.630;7.484;2024-02-23T23:11:25;-17303.97;;;6.84;95.63
15193;BME280;7697;51.630;7.484;2024-02-23T23:16:27;-17302.97;;;6.81;95.47
15193;BME280;7697;51.630;7.484;2024-02-23T23:21:29;-17300.28;;;6.72;95.40
15193;BME280;7697;51.630;7.484;2024-02-23T23:26:32;-17299.94;;;6.71;95.91
15193;BME280;7697;51.630;7.484;2024-02-23T23:31:34;-17299.94;;;6.71;96.07
15193;BME280;7697;51.630;7.484;2024-02-23T23:36:36;-17299.94;;;6.71;96.05
15193;BME280;7697;51.630;7.484;2024-02-23T23:41:39;-17299.09;;;6.69;96.17
15193;BME280;7697;51.630;7.484;2024-02-23T23:46:41;-17299.28;;;6.69;95.81
15193;BME280;7697;51.630;7.484;2024-02-23T23:51:43;-17298.44;;;6.67;96.18
15193;BME280;7697;51.630;7.484;2024-02-23T23:56:46;-17298.25;;;6.66;96.43
